Time;durP1;ratioP1;P1;durP2;ratioP2;P2;SDS_P1;SDS_P2;PMS_P1;PMS_P2;Temp;Humidity;BMP_temperature;BMP_pressure;BME280_temperature;BME280_humidity;BME280_pressure;Samples;Min_cycle;Max_cycle;Signal;HPM_P1;HPM_P2
2022/04/09 00:02:18;;;;;;;8.02;4.45;;;;;;;14.51;49.25;98734.28;5050202;28;20036;-48
2022/04/09 00:04:43;;;;;;;8.18;4.10;;;;;;;13.84;50.62;98738.09;5049225;28;20083;-48
2022/04/09 00:07:09;;;;;;;8.35;4.18;;;;;;;13.40;52.21;98733.56;5049359;28;20110;-47
2022/04/09 00:09:35;;;;;;;5.32;3.40;;;;;;;14.05;50.05;98745.31;5049533;28;20103;-50
2022/04/09 00:12:00;;;;;;;5.72;3.33;;;;;;;14.30;49.27;98753.84;5049609;28;20056;-48
2022/04/09 00:14:26;;;;;;;6.15;3.55;;;;;;;13.44;51.74;98750.72;5049678;28;20049;-50
2022/04/09 00:16:51;;;;;;;5.97;3.22;;;;;;;13.13;53.07;98741.41;5049389;28;20029;-48
2022/04/09 00:19:17;;;;;;;4.82;3.17;;;;;;;13.64;51.53;98742.13;5049721;28;20654;-50
2022/04/09 00:21:42;;;;;;;4.72;2.92;;;;;;;13.96;50.28;98744.16;5049640;28;20025;-48
2022/04/09 00:24:08;;;;;;;5.38;3.25;;;;;;;13.38;52.06;98732.16;5049432;28;20033;-49
2022/04/09 00:26:33;;;;;;;3.63;3.10;;;;;;;13.18;53.34;98730.81;5049203;28;20033;-48
2022/04/09 00:28:59;;;;;;;6.90;3.42;;;;;;;13.78;51.12;98731.06;5049718;28;20033;-48
2022/04/09 00:31:24;;;;;;;5.63;3.00;;;;;;;13.49;51.99;98739.28;5049705;28;20551;-49
2022/04/09 00:33:50;;;;;;;5.57;3.20;;;;;;;12.83;53.73;98742.56;5049338;28;20018;-50
2022/04/09 00:36:15;;;;;;;4.68;3.13;;;;;;;13.05;53.01;98739.16;5050420;28;20048;-49
2022/04/09 00:38:41;;;;;;;5.75;3.15;;;;;;;13.75;51.88;98748.44;5052895;28;20401;-48
2022/04/09 00:41:10;;;;;;;9.80;3.72;;;;;;;12.86;53.56;98747.41;5053295;28;20017;-49
2022/04/09 00:43:40;;;;;;;8.90;3.42;;;;;;;12.48;55.37;98750.75;5053185;28;20029;-48
2022/04/09 00:46:06;;;;;;;8.50;3.65;;;;;;;13.32;53.22;98738.50;5053226;28;20029;-49
2022/04/09 00:48:31;;;;;;;5.85;3.35;;;;;;;13.38;52.43;98750.88;5052808;28;20419;-49
2022/04/09 00:50:57;;;;;;;6.13;3.55;;;;;;;12.47;54.98;98751.78;5052862;28;20040;-46
2022/04/09 00:53:24;;;;;;;8.95;3.60;;;;;;;12.61;55.22;98757.66;5052535;28;20037;-46
2022/04/09 00:58:39;;;;;;;6.05;3.75;;;;;;;12.91;53.74;98755.50;5052585;28;20078;-49
2022/04/09 01:01:04;;;;;;;5.15;3.38;;;;;;;12.72;55.55;98759.47;5052960;28;20120;-51
2022/04/09 01:03:33;;;;;;;7.05;3.72;;;;;;;13.45;53.49;98754.19;5052683;28;20508;-49
2022/04/09 01:05:59;;;;;;;6.75;3.70;;;;;;;13.45;52.79;98748.84;5052562;28;20024;-50
2022/04/09 01:08:25;;;;;;;6.68;3.58;;;;;;;12.66;54.66;98753.22;5052950;28;20468;-49
2022/04/09 01:10:50;;;;;;;7.10;3.72;;;;;;;13.26;53.90;98756.28;5053114;28;20021;-48
2022/04/09 01:13:16;;;;;;;5.05;3.70;;;;;;;13.54;52.52;98763.41;5052830;28;20028;-48
2022/04/09 01:15:42;;;;;;;5.85;3.70;;;;;;;13.05;54.35;98764.00;5053494;28;20096;-47
2022/04/09 01:18:08;;;;;;;7.28;3.92;;;;;;;12.29;56.58;98758.16;5053378;28;20100;-48
2022/04/09 01:20:34;;;;;;;6.35;3.92;;;;;;;13.18;54.53;98754.03;5052432;28;20028;-48
2022/04/09 01:22:59;;;;;;;6.47;3.97;;;;;;;13.12;53.99;98747.81;5052912;28;20102;-48
2022/04/09 01:25:25;;;;;;;7.80;4.13;;;;;;;12.17;55.97;98757.41;5052912;28;20019;-47
2022/04/09 01:27:51;;;;;;;6.70;4.00;;;;;;;11.91;58.55;98754.22;5052928;28;20035;-48
2022/04/09 01:30:17;;;;;;;7.18;4.20;;;;;;;12.94;55.20;98753.41;5052416;28;20021;-48
2022/04/09 01:32:42;;;;;;;5.78;3.80;;;;;;;12.81;54.59;98755.34;5052839;28;20100;-48
2022/04/09 01:35:08;;;;;;;7.47;4.25;;;;;;;12.33;56.71;98762.75;5052583;28;20017;-48
2022/04/09 01:37:34;;;;;;;6.05;4.25;;;;;;;12.32;57.22;98744.34;5052850;28;20120;-48
2022/04/09 01:39:59;;;;;;;8.55;4.00;;;;;;;13.29;54.12;98751.28;5051275;28;20028;-47
2022/04/09 01:42:26;;;;;;;7.13;3.95;;;;;;;12.73;55.64;98750.38;5052041;28;20021;-48
2022/04/09 01:44:55;;;;;;;6.95;4.88;;;;;;;12.07;58.01;98734.81;5052472;28;20027;-49
2022/04/09 01:47:20;;;;;;;6.60;4.13;;;;;;;12.44;57.02;98729.09;5052418;28;20075;-49
2022/04/09 01:49:46;;;;;;;9.57;4.30;;;;;;;12.33;55.99;98732.63;5051986;28;20620;-49
2022/04/09 01:52:12;;;;;;;7.05;4.35;;;;;;;11.89;58.07;98743.78;5052118;28;20023;-49
2022/04/09 01:54:37;;;;;;;8.15;4.60;;;;;;;12.13;58.53;98738.41;5052162;28;20087;-51
2022/04/09 01:57:03;;;;;;;9.07;4.60;;;;;;;12.65;57.08;98738.25;5052383;28;20036;-48
2022/04/09 01:59:28;;;;;;;9.63;4.75;;;;;;;12.05;58.24;98747.59;5052374;28;20481;-51
2022/04/09 02:01:54;;;;;;;13.38;6.50;;;;;;;11.86;58.61;98746.09;5051659;28;20021;-50
2022/04/09 02:04:20;;;;;;;24.50;10.98;;;;;;;11.71;59.09;98755.41;5051378;28;20044;-50
2022/04/09 02:06:46;;;;;;;23.10;10.80;;;;;;;12.14;56.77;98756.00;5051615;28;20029;-51
2022/04/09 02:09:11;;;;;;;25.75;12.05;;;;;;;11.73;57.91;98755.97;5051725;28;20108;-49
2022/04/09 02:11:41;;;;;;;27.80;11.25;;;;;;;11.09;60.71;98749.78;5051568;28;20024;-48
2022/04/09 02:14:11;;;;;;;25.52;11.60;;;;;;;11.65;58.84;98750.19;5051206;28;20087;-48
2022/04/09 02:16:37;;;;;;;24.90;12.00;;;;;;;11.71;58.30;98751.94;5051525;28;20408;-48
2022/04/09 02:19:03;;;;;;;26.55;13.15;;;;;;;11.17;59.99;98744.09;5051778;28;20481;-49
2022/04/09 02:21:29;;;;;;;25.38;13.07;;;;;;;11.12;60.59;98741.34;5051751;28;20070;-49
2022/04/09 02:23:54;;;;;;;25.95;12.90;;;;;;;12.00;57.38;98744.81;5051429;28;20020;-48
2022/04/09 02:26:20;;;;;;;25.83;12.70;;;;;;;11.63;58.65;98749.63;5052303;28;20028;-49
2022/04/09 02:28:49;;;;;;;23.35;12.27;;;;;;;11.22;59.70;98744.22;5052234;28;20036;-50
2022/04/09 02:31:18;;;;;;;24.30;11.88;;;;;;;11.69;58.53;98735.34;5051715;28;20029;-52
2022/04/09 02:33:44;;;;;;;26.98;13.43;;;;;;;12.27;57.18;98739.72;5051567;28;20087;-51
2022/04/09 02:36:12;;;;;;;24.05;11.95;;;;;;;11.61;58.77;98741.03;5051175;28;20032;-50
2022/04/09 02:38:38;;;;;;;25.95;12.68;;;;;;;11.17;59.99;98735.28;5051562;28;20100;-49
2022/04/09 02:41:04;;;;;;;24.23;12.13;;;;;;;11.57;59.42;98719.38;5051520;28;20056;-47
2022/04/09 02:43:30;;;;;;;27.38;12.32;;;;;;;11.92;58.13;98738.00;5051307;28;20060;-52
2022/04/09 02:45:55;;;;;;;24.17;11.88;;;;;;;11.50;58.57;98743.50;5051164;28;20025;-48
2022/04/09 02:48:21;;;;;;;26.83;12.45;;;;;;;11.19;60.56;98738.53;5051746;28;20389;-51
2022/04/09 02:50:48;;;;;;;22.42;10.77;;;;;;;11.69;58.10;98744.16;5051251;28;20028;-50
2022/04/09 02:53:14;;;;;;;22.15;10.55;;;;;;;11.99;57.58;98729.03;5051093;28;20021;-50
2022/04/09 02:55:39;;;;;;;24.17;10.70;;;;;;;11.55;58.41;98729.47;5051051;28;20357;-52
2022/04/09 02:58:05;;;;;;;22.13;10.35;;;;;;;11.18;60.40;98735.06;5051436;28;20024;-48
2022/04/09 03:00:30;;;;;;;24.25;11.07;;;;;;;11.74;59.17;98741.59;5049998;28;20031;-48
2022/04/09 03:02:56;;;;;;;23.55;11.05;;;;;;;11.92;57.65;98727.34;5051440;28;20028;-48
2022/04/09 03:05:21;;;;;;;25.70;10.95;;;;;;;11.26;59.45;98736.56;5050925;28;20389;-47
2022/04/09 03:07:47;;;;;;;25.00;11.90;;;;;;;10.96;60.72;98730.28;5049992;28;20128;-48
2022/04/09 03:10:12;;;;;;;25.83;11.80;;;;;;;11.61;58.70;98735.72;5051047;28;20023;-49
2022/04/09 03:12:45;;;;;;;21.08;11.20;;;;;;;11.87;57.97;98735.19;5051045;28;20189;-49
2022/04/09 03:15:11;;;;;;;21.77;11.63;;;;;;;11.41;58.80;98738.78;5050685;28;20021;-49
2022/04/09 03:17:36;;;;;;;21.95;11.85;;;;;;;11.37;59.87;98738.41;5050580;28;20509;-49
2022/04/09 03:20:03;;;;;;;25.75;11.27;;;;;;;12.21;56.57;98729.22;5051305;28;20020;-48
2022/04/09 03:22:29;;;;;;;19.40;10.55;;;;;;;11.75;58.12;98739.75;5050786;28;20021;-49
2022/04/09 03:25:01;;;;;;;25.48;11.52;;;;;;;11.27;59.99;98733.69;5050689;28;20039;-50
2022/04/09 03:27:27;;;;;;;18.92;9.95;;;;;;;11.30;60.00;98730.53;5050645;28;20036;-49
2022/04/09 03:29:53;;;;;;;18.80;9.57;;;;;;;11.88;58.57;98730.66;5050853;28;20021;-49
2022/04/09 03:32:19;;;;;;;19.20;9.20;;;;;;;11.85;57.49;98731.16;5050976;28;20020;-50
2022/04/09 03:34:45;;;;;;;17.45;8.90;;;;;;;11.33;58.90;98718.63;5050583;28;20033;-49
2022/04/09 03:37:11;;;;;;;17.40;8.75;;;;;;;11.49;58.91;98735.75;5050853;28;20526;-50
2022/04/09 03:39:41;;;;;;;21.30;9.90;;;;;;;12.18;57.38;98735.00;5050250;28;20450;-49
2022/04/09 03:42:07;;;;;;;19.85;8.77;;;;;;;11.64;57.93;98725.41;5050794;28;20117;-49
2022/04/09 03:44:33;;;;;;;21.25;9.50;;;;;;;11.30;59.49;98727.88;5050850;28;20038;-50
2022/04/09 03:47:03;;;;;;;19.23;9.48;;;;;;;11.22;60.70;98716.78;5050699;28;20087;-49
2022/04/09 03:49:29;;;;;;;21.60;9.65;;;;;;;12.01;57.63;98717.09;5050260;28;20017;-49
2022/04/09 03:51:56;;;;;;;21.73;9.75;;;;;;;11.57;58.36;98707.94;5050640;28;20043;-50
2022/04/09 03:54:21;;;;;;;19.33;9.75;;;;;;;11.41;58.99;98704.13;5049896;28;20381;-50
2022/04/09 03:56:46;;;;;;;21.10;9.70;;;;;;;11.68;58.74;98725.75;5050982;28;20083;-48
2022/04/09 03:59:12;;;;;;;20.05;9.30;;;;;;;12.39;57.22;98717.50;5050550;28;20039;-52
2022/04/09 04:01:38;;;;;;;19.05;7.95;;;;;;;11.73;58.38;98721.31;5050518;28;20421;-49
2022/04/09 04:04:03;;;;;;;18.35;8.50;;;;;;;11.27;59.77;98719.53;5050352;28;20452;-51
2022/04/09 04:06:29;;;;;;;16.20;8.38;;;;;;;11.72;59.24;98722.38;5050571;28;20029;-49
2022/04/09 04:08:58;;;;;;;19.92;9.25;;;;;;;12.35;57.62;98725.19;5050504;28;20045;-50
2022/04/09 04:11:24;;;;;;;17.25;9.48;;;;;;;12.32;57.52;98720.34;5051312;28;20028;-50
2022/04/09 04:13:49;;;;;;;17.90;8.52;;;;;;;12.36;56.37;98732.16;5054236;28;20021;-48
2022/04/09 04:16:16;;;;;;;16.05;8.23;;;;;;;13.06;55.82;98738.91;5054412;28;20020;-49
2022/04/09 04:18:42;;;;;;;17.63;8.10;;;;;;;12.90;54.97;98734.38;5054496;28;20100;-48
2022/04/09 04:21:08;;;;;;;16.00;7.60;;;;;;;12.52;55.87;98727.88;5054015;28;20104;-49
2022/04/09 04:23:34;;;;;;;17.30;7.88;;;;;;;12.75;56.38;98732.25;5053840;28;20082;-49
2022/04/09 04:25:59;;;;;;;12.95;6.95;;;;;;;13.34;53.27;98733.72;5054234;28;20025;-51
2022/04/09 04:28:25;;;;;;;13.85;6.45;;;;;;;12.84;54.09;98724.66;5054168;28;20468;-37
2022/04/09 04:30:50;;;;;;;14.32;7.75;;;;;;;12.48;56.22;98734.75;5054212;28;20025;-38
2022/04/09 04:33:16;;;;;;;11.77;6.43;;;;;;;12.98;54.47;98751.84;5052910;28;20025;-37
2022/04/09 04:35:42;;;;;;;14.25;6.38;;;;;;;12.95;54.16;98757.69;5053050;28;20021;-37
2022/04/09 04:38:07;;;;;;;14.38;6.35;;;;;;;12.52;55.48;98754.56;5053519;28;20028;-37
2022/04/09 04:40:33;;;;;;;11.80;5.78;;;;;;;12.78;54.82;98755.81;5053250;28;20036;-37
2022/04/09 04:42:58;;;;;;;10.63;6.10;;;;;;;13.16;53.75;98748.13;5053027;28;20040;-38
2022/04/09 04:45:23;;;;;;;9.73;5.50;;;;;;;12.83;54.03;98753.25;5052783;28;20025;-37
2022/04/09 04:47:49;;;;;;;8.00;4.65;;;;;;;12.12;55.29;98752.75;5053118;28;20057;-37
2022/04/09 04:50:16;;;;;;;9.57;4.75;;;;;;;12.73;54.73;98755.72;5052719;28;20025;-38
2022/04/09 04:52:42;;;;;;;9.23;5.68;;;;;;;13.02;53.53;98751.13;5052969;28;20039;-38
2022/04/09 04:55:11;;;;;;;8.02;4.72;;;;;;;12.48;55.00;98751.56;5050050;28;20438;-38
2022/04/09 04:57:55;;;;;;;10.52;5.10;;;;;;;12.42;54.94;98754.41;5052861;28;20021;-38
2022/04/09 05:00:25;;;;;;;11.27;5.10;;;;;;;12.93;53.88;98752.59;5044157;28;20480;-50
2022/04/09 05:02:53;;;;;;;;;;;;;;;12.62;53.80;98751.25;5042957;28;20025;-49
2022/04/09 05:05:21;;;;;;;10.32;5.65;;;;;;;12.38;54.69;98746.06;5052333;28;20008;-51
2022/04/09 05:07:49;;;;;;;11.73;6.28;;;;;;;12.77;54.44;98738.16;5052485;28;20080;-48
2022/04/09 05:10:22;;;;;;;11.07;5.97;;;;;;;13.57;51.37;98743.38;5047041;28;20456;-49
2022/04/09 05:12:49;;;;;;;12.35;6.20;;;;;;;13.08;52.43;98746.69;5049528;28;20144;-50
2022/04/09 05:15:17;;;;;;;11.77;6.78;;;;;;;12.41;54.97;98742.09;5048395;28;20454;-48
2022/04/09 05:17:43;;;;;;;13.90;6.15;;;;;;;12.83;54.56;98737.22;5052095;28;20416;-52
2022/04/09 05:20:11;;;;;;;13.50;6.70;;;;;;;13.39;53.28;98742.63;5051755;28;20017;-49
2022/04/09 05:22:38;;;;;;;35.25;21.38;;;;;;;13.45;51.94;98740.81;5050888;28;20021;-48
2022/04/09 05:25:05;;;;;;;38.55;22.30;;;;;;;13.09;53.30;98741.06;5051481;28;20078;-51
2022/04/09 05:27:31;;;;;;;62.15;32.30;;;;;;;13.07;53.89;98726.34;5049169;28;20364;-52
2022/04/09 05:29:56;;;;;;;11.63;6.65;;;;;;;13.88;51.21;98740.03;5051566;28;20116;-52
2022/04/09 05:32:22;;;;;;;9.25;5.80;;;;;;;13.87;51.10;98730.38;5051838;28;20100;-49
2022/04/09 05:34:49;;;;;;;14.38;6.10;;;;;;;13.03;53.36;98728.69;5051562;28;20025;-49
2022/04/09 05:37:15;;;;;;;10.98;5.45;;;;;;;12.70;53.86;98737.53;5051491;28;20389;-48
2022/04/09 05:39:42;;;;;;;12.50;5.38;;;;;;;13.40;52.76;98741.56;5051384;28;20020;-49
2022/04/09 05:42:09;;;;;;;8.20;4.95;;;;;;;13.73;51.77;98725.66;5051329;28;20548;-49
2022/04/09 05:44:34;;;;;;;17.23;9.35;;;;;;;13.42;52.93;98725.28;5050701;28;20021;-49
2022/04/09 05:47:00;;;;;;;8.63;5.07;;;;;;;13.15;53.43;98728.59;5051045;28;20108;-51
2022/04/09 05:49:26;;;;;;;12.63;5.20;;;;;;;13.84;52.06;98735.44;5051200;28;20031;-49
2022/04/09 05:51:52;;;;;;;8.88;5.15;;;;;;;14.59;50.16;98738.41;5051195;28;20021;-48
2022/04/09 05:54:18;;;;;;;11.65;6.30;;;;;;;15.01;70.35;98746.50;5050831;28;20032;-50
2022/04/09 05:56:43;;;;;;;10.18;5.05;;;;;;;17.46;46.24;98743.94;5051304;28;20025;-50
2022/04/09 05:59:09;;;;;;;8.75;5.22;;;;;;;17.37;43.75;98712.25;5050938;28;20480;-50
2022/04/09 06:01:34;;;;;;;8.77;5.03;;;;;;;16.00;45.78;98721.84;5051483;28;20024;-51
2022/04/09 06:04:01;;;;;;;8.98;5.07;;;;;;;15.39;47.73;98725.84;5051135;28;20013;-49
2022/04/09 06:06:27;;;;;;;9.13;4.93;;;;;;;16.38;45.32;98723.28;5051234;28;20027;-50
2022/04/09 06:08:52;;;;;;;24.10;12.02;;;;;;;15.40;47.87;98692.63;5051404;28;20203;-50
2022/04/09 06:11:18;;;;;;;10.80;5.32;;;;;;;16.00;46.64;98711.13;5051438;28;20021;-50
2022/04/09 06:13:43;;;;;;;10.50;4.72;;;;;;;16.89;45.00;98708.31;5051322;28;20021;-49
2022/04/09 06:16:09;;;;;;;7.68;4.68;;;;;;;17.81;42.88;98704.56;5051179;28;20024;-52
2022/04/09 06:18:38;;;;;;;12.15;4.65;;;;;;;17.50;42.38;98707.38;5051086;28;20100;-49
2022/04/09 06:21:08;;;;;;;8.32;4.68;;;;;;;17.57;43.07;98708.69;5051137;28;20120;-49
2022/04/09 06:23:34;;;;;;;22.92;13.60;;;;;;;18.15;41.57;98724.34;5051230;28;20044;-50
2022/04/09 06:26:00;;;;;;;7.95;5.18;;;;;;;18.07;42.50;98721.44;5050901;28;20033;-52
2022/04/09 06:28:26;;;;;;;9.90;5.20;;;;;;;18.03;42.61;98712.28;5050918;28;20049;-49
2022/04/09 06:30:51;;;;;;;12.77;5.40;;;;;;;18.71;40.64;98716.97;5050806;28;20032;-49
2022/04/09 06:33:17;;;;;;;11.77;5.40;;;;;;;19.37;39.58;98707.47;5050741;28;20126;-48
2022/04/09 06:35:43;;;;;;;9.55;4.78;;;;;;;19.67;38.18;98702.84;5050586;28;20021;-48
2022/04/09 06:38:08;;;;;;;7.93;5.00;;;;;;;19.08;39.15;98700.22;5051039;28;20032;-48
2022/04/09 06:40:34;;;;;;;10.32;5.57;;;;;;;19.90;38.30;98703.91;5050602;28;20112;-50
2022/04/09 06:43:00;;;;;;;14.00;6.50;;;;;;;20.57;37.14;98703.75;5051044;28;20035;-49
2022/04/09 06:45:25;;;;;;;9.90;5.60;;;;;;;21.43;35.57;98692.53;5050754;28;20033;-48
2022/04/09 06:47:51;;;;;;;10.15;5.50;;;;;;;20.89;36.41;98694.09;5050583;28;20094;-48
2022/04/09 06:50:16;;;;;;;13.55;5.00;;;;;;;20.51;37.36;98696.84;5050317;28;20036;-50
2022/04/09 06:52:42;;;;;;;12.68;8.50;;;;;;;21.17;36.23;98697.66;5050736;28;20533;-49
2022/04/09 06:55:15;;;;;;;18.33;8.93;;;;;;;21.56;36.09;98701.78;5050594;28;20048;-49
2022/04/09 06:57:41;;;;;;;8.98;4.40;;;;;;;22.55;34.09;98701.31;5050683;28;20129;-48
2022/04/09 07:00:13;;;;;;;6.28;4.25;;;;;;;23.00;33.27;98706.72;5050116;28;20029;-50
2022/04/09 07:02:40;;;;;;;12.18;4.68;;;;;;;23.59;32.52;98710.03;5050294;28;20400;-49
2022/04/09 07:05:06;;;;;;;15.73;5.35;;;;;;;23.68;31.96;98712.75;5050734;28;20104;-49
2022/04/09 07:07:33;;;;;;;8.85;4.88;;;;;;;23.58;32.45;98707.63;5049998;28;20053;-48
2022/04/09 07:10:05;;;;;;;8.73;4.05;;;;;;;23.78;31.64;98698.09;5050417;28;20421;-49
2022/04/09 07:12:31;;;;;;;9.40;4.10;;;;;;;24.27;31.15;98687.94;5049611;28;20056;-49
2022/04/09 07:14:56;;;;;;;7.07;4.32;;;;;;;24.16;31.18;98695.63;5049749;28;20035;-51
2022/04/09 07:17:24;;;;;;;12.05;4.60;;;;;;;23.98;32.38;98688.56;5050210;28;20025;-50
2022/04/09 07:19:50;;;;;;;10.85;4.50;;;;;;;24.57;31.07;98688.13;5048754;28;20494;-49
2022/04/09 07:22:15;;;;;;;6.85;4.53;;;;;;;25.73;29.18;98683.56;5049888;28;20048;-51
2022/04/09 07:24:41;;;;;;;12.00;4.60;;;;;;;25.19;29.44;98686.84;5049934;28;20029;-52
2022/04/09 07:27:06;;;;;;;8.77;5.30;;;;;;;24.51;30.57;98686.66;5049883;28;20108;-50
2022/04/09 07:29:32;;;;;;;8.63;5.32;;;;;;;25.08;30.30;98701.94;5050090;28;20401;-37
2022/04/09 07:31:57;;;;;;;11.55;4.80;;;;;;;25.81;29.24;98696.31;5050275;28;20431;-51
2022/04/09 07:34:23;;;;;;;7.45;4.40;;;;;;;25.88;28.69;98709.44;5049521;28;20110;-51
2022/04/09 07:36:48;;;;;;;8.50;3.95;;;;;;;26.23;28.05;98696.38;5050024;28;20037;-54
2022/04/09 07:39:13;;;;;;;6.35;4.07;;;;;;;27.10;26.72;98706.50;5043321;28;20045;-52
2022/04/09 07:41:39;;;;;;;7.15;3.95;;;;;;;27.98;25.83;98708.16;5029167;28;20017;-51
2022/04/09 07:44:05;;;;;;;9.73;4.50;;;;;;;28.33;25.71;98700.22;5040702;28;20454;-48
2022/04/09 07:46:30;;;;;;;8.82;4.03;;;;;;;26.92;27.06;98695.00;5049901;28;20028;-51
2022/04/09 07:48:56;;;;;;;6.50;3.70;;;;;;;26.78;27.22;98708.13;5041391;28;20037;-47
2022/04/09 07:51:21;;;;;;;9.25;3.85;;;;;;;26.40;27.65;98695.44;5053596;28;20098;-51
2022/04/09 07:53:46;;;;;;;6.28;3.65;;;;;;;26.68;27.76;98697.66;5052174;28;20101;-52
2022/04/09 07:56:12;;;;;;;6.00;3.45;;;;;;;27.24;26.77;98689.00;5053509;28;20108;-51
2022/04/09 07:58:37;;;;;;;6.30;3.38;;;;;;;27.86;26.88;98681.63;5053534;28;20041;-51
2022/04/09 08:01:03;;;;;;;6.90;3.80;;;;;;;28.41;26.72;98691.06;5053778;28;20040;-50
2022/04/09 08:03:28;;;;;;;5.78;3.75;;;;;;;28.73;25.86;98688.44;5052130;28;20060;-49
2022/04/09 08:05:54;;;;;;;7.05;3.20;;;;;;;28.21;26.17;98687.34;5033310;28;20681;-50
2022/04/09 08:08:19;;;;;;;8.05;3.50;;;;;;;28.37;26.11;98672.94;5033093;28;20642;-49
2022/04/09 08:10:45;;;;;;;8.05;3.85;;;;;;;28.27;26.40;98672.31;5033234;28;20040;-50
2022/04/09 08:13:11;;;;;;;7.28;3.30;;;;;;;28.70;25.74;98669.97;5041069;28;20076;-52
2022/04/09 08:15:39;;;;;;;7.82;3.85;;;;;;;27.55;27.16;98674.00;5039630;28;20029;-53
2022/04/09 08:18:06;;;;;;;5.13;3.70;;;;;;;27.54;26.81;98659.56;5053109;28;20048;-54
2022/04/09 08:20:32;;;;;;;6.25;3.42;;;;;;;27.81;26.86;98654.50;5052210;28;20112;-50
2022/04/09 08:22:57;;;;;;;6.05;3.50;;;;;;;28.43;26.46;98666.09;5052496;28;20104;-52
2022/04/09 08:25:23;;;;;;;4.85;3.40;;;;;;;27.52;28.01;98667.31;5052258;28;20028;-49
2022/04/09 08:27:52;;;;;;;6.43;3.60;;;;;;;27.74;26.80;98659.75;5048776;28;20029;-51
2022/04/09 08:30:19;;;;;;;7.50;3.35;;;;;;;28.50;26.09;98658.06;5050047;28;20036;-51
2022/04/09 08:32:45;;;;;;;7.07;3.38;;;;;;;27.80;27.21;98652.94;5047402;28;20461;-49
2022/04/09 08:35:10;;;;;;;5.90;3.35;;;;;;;28.22;26.80;98639.75;5049887;28;20120;-52
2022/04/09 08:37:36;;;;;;;10.02;3.58;;;;;;;28.38;26.16;98642.50;5049964;28;20028;-52
2022/04/09 08:40:03;;;;;;;7.20;3.63;;;;;;;28.46;27.13;98635.28;5050359;28;20364;-52
2022/04/09 08:42:30;;;;;;;5.22;3.25;;;;;;;29.85;24.94;98631.69;5050694;28;20047;-52
2022/04/09 08:44:55;;;;;;;15.02;11.90;;;;;;;29.79;24.62;98624.91;5051092;28;20024;-51
2022/04/09 08:47:23;;;;;;;12.02;7.68;;;;;;;29.84;24.27;98634.81;5051231;28;20029;-50
2022/04/09 08:49:48;;;;;;;7.28;3.70;;;;;;;29.59;24.91;98621.31;5052786;28;20056;-52
2022/04/09 08:52:15;;;;;;;4.97;3.28;;;;;;;29.37;25.11;98622.75;5051707;28;20488;-52
2022/04/09 08:54:41;;;;;;;5.53;3.05;;;;;;;29.94;24.61;98620.50;5051536;28;20027;-51
2022/04/09 08:57:07;;;;;;;5.43;3.38;;;;;;;30.52;24.33;98625.19;5051229;28;20029;-50
2022/04/09 08:59:33;;;;;;;5.53;3.30;;;;;;;30.36;24.64;98611.56;5049366;28;20455;-51
2022/04/09 09:01:59;;;;;;;5.60;3.03;;;;;;;31.52;23.42;98615.09;5050809;28;20029;-50
2022/04/09 09:04:24;;;;;;;7.47;3.28;;;;;;;30.96;23.04;98611.88;5050369;28;20025;-53
2022/04/09 09:06:50;;;;;;;4.93;3.20;;;;;;;30.70;22.95;98614.53;5050755;28;20436;-51
2022/04/09 09:09:27;;;;;;;12.10;3.13;;;;;;;30.74;22.98;98613.44;5050892;28;20103;-49
2022/04/09 09:11:53;;;;;;;5.50;3.00;;;;;;;30.28;22.97;98610.63;5050749;28;20021;-52
2022/04/09 09:14:26;;;;;;;5.30;2.90;;;;;;;30.35;23.76;98608.03;5052090;28;20082;-51
2022/04/09 09:16:54;;;;;;;3.97;2.90;;;;;;;30.94;22.57;98602.44;5052163;28;20033;-52
2022/04/09 09:19:19;;;;;;;4.70;3.33;;;;;;;30.43;23.29;98605.44;5052063;28;20040;-52
2022/04/09 09:21:53;;;;;;;7.10;3.60;;;;;;;29.41;24.50;98607.19;5052339;28;20033;-52
2022/04/09 09:24:19;;;;;;;8.10;3.95;;;;;;;28.23;26.13;98596.78;5052214;28;20112;-49
2022/04/09 09:26:44;;;;;;;6.25;3.50;;;;;;;28.03;26.26;98593.91;5052325;28;20100;-51
2022/04/09 09:29:22;;;;;;;5.10;3.38;;;;;;;28.65;24.91;98591.69;5052390;28;20425;-52
2022/04/09 09:31:50;;;;;;;5.72;3.53;;;;;;;29.56;23.75;98587.19;5051593;28;20107;-51
2022/04/09 09:34:19;;;;;;;7.10;3.95;;;;;;;28.61;25.43;98585.31;5051630;28;20200;-51
2022/04/09 09:36:44;;;;;;;7.60;3.88;;;;;;;28.24;25.61;98587.44;5052625;28;20480;-50
2022/04/09 09:39:12;;;;;;;4.80;3.50;;;;;;;27.59;25.58;98582.06;5052113;28;20116;-50
2022/04/09 09:41:53;;;;;;;5.03;3.10;;;;;;;28.15;24.43;98573.91;5051867;28;20029;-51
2022/04/09 09:44:20;;;;;;;9.00;3.22;;;;;;;28.47;24.04;98577.50;5052558;28;20016;-52
2022/04/09 09:46:49;;;;;;;4.68;2.83;;;;;;;29.06;23.68;98566.84;5052267;28;20063;-51
2022/04/09 09:49:15;;;;;;;4.78;2.50;;;;;;;28.80;23.40;98562.72;5052291;28;20029;-50
2022/04/09 09:51:42;;;;;;;5.47;3.20;;;;;;;28.68;23.69;98568.28;5051826;28;20093;-52
2022/04/09 09:54:12;;;;;;;3.80;2.80;;;;;;;28.59;23.73;98556.72;5051838;28;20032;-51
2022/04/09 09:56:43;;;;;;;4.30;2.70;;;;;;;28.88;24.20;98554.69;5051821;28;20060;-51
2022/04/09 09:59:11;;;;;;;5.70;2.83;;;;;;;28.58;23.95;98552.41;5051700;28;20550;-51
2022/04/09 10:01:37;;;;;;;3.85;2.80;;;;;;;29.08;24.16;98556.34;5051338;28;20068;-53
2022/04/09 10:04:05;;;;;;;6.30;3.05;;;;;;;28.81;24.92;98550.63;5050817;28;20021;-52
2022/04/09 10:06:32;;;;;;;6.80;3.20;;;;;;;28.89;23.96;98545.31;5051481;28;20112;-49
2022/04/09 10:08:59;;;;;;;7.35;3.38;;;;;;;27.70;25.08;98553.06;5050751;28;20065;-48
2022/04/09 10:11:26;;;;;;;8.02;3.83;;;;;;;27.62;25.52;98546.63;5051100;28;20032;-49
2022/04/09 10:13:55;;;;;;;6.22;3.40;;;;;;;28.16;24.50;98534.50;5050612;28;20039;-49
2022/04/09 10:16:22;;;;;;;4.85;3.38;;;;;;;27.92;24.66;98540.06;5051659;28;20111;-50
2022/04/09 10:18:49;;;;;;;5.32;3.40;;;;;;;28.33;24.62;98533.38;5051200;28;20094;-51
2022/04/09 10:21:17;;;;;;;9.50;3.35;;;;;;;27.74;25.25;98529.41;5051042;28;20056;-51
2022/04/09 10:23:43;;;;;;;9.25;3.17;;;;;;;26.12;27.01;98529.72;5049999;28;20380;-51
2022/04/09 10:26:11;;;;;;;7.72;2.88;;;;;;;25.96;27.55;98512.41;5049954;28;20086;-52
2022/04/09 10:28:38;;;;;;;8.45;3.45;;;;;;;26.20;27.42;98519.88;5050952;28;20033;-50
2022/04/09 10:31:22;;;;;;;5.13;2.88;;;;;;;26.13;27.33;98514.94;5050625;28;20502;-52
2022/04/09 10:33:59;;;;;;;6.88;2.53;;;;;;;25.68;27.45;98499.34;5050270;28;20020;-51
2022/04/09 10:36:42;;;;;;;4.57;2.47;;;;;;;25.89;27.48;98496.59;5050119;28;20033;-51
2022/04/09 10:39:22;;;;;;;6.43;2.50;;;;;;;26.62;26.52;98492.47;5050945;28;20029;-51
2022/04/09 10:41:57;;;;;;;10.90;2.70;;;;;;;26.88;26.03;98488.56;5050806;28;20051;-49
2022/04/09 10:44:45;;;;;;;5.68;2.60;;;;;;;26.29;26.98;98487.84;5049792;28;20127;-52
2022/04/09 10:47:14;;;;;;;7.32;2.70;;;;;;;26.09;27.80;98477.81;5051137;28;20064;-51
2022/04/09 10:49:40;;;;;;;6.75;2.75;;;;;;;25.85;28.34;98476.56;5050630;28;20102;-51
2022/04/09 10:52:06;;;;;;;6.70;2.42;;;;;;;26.48;27.30;98475.59;5050479;28;20029;-52
2022/04/09 10:54:33;;;;;;;4.78;2.58;;;;;;;26.69;26.68;98479.06;5050670;28;20090;-49
2022/04/09 10:57:10;;;;;;;5.90;2.60;;;;;;;26.72;27.17;98469.38;5050478;28;20085;-49
2022/04/09 10:59:37;;;;;;;6.75;3.13;;;;;;;27.36;26.35;98464.28;5050646;28;20024;-51
2022/04/09 11:02:04;;;;;;;3.50;2.30;;;;;;;26.81;26.81;98463.81;5050028;28;20162;-50
2022/04/09 11:04:32;;;;;;;3.80;2.10;;;;;;;26.92;26.35;98467.66;5050345;28;20113;-50
2022/04/09 11:07:20;;;;;;;5.05;2.20;;;;;;;27.28;25.58;98463.28;5048666;28;20338;-51
2022/04/09 11:09:56;;;;;;;3.13;2.20;;;;;;;26.83;26.39;98464.25;5049894;28;20494;-50
2022/04/09 11:12:48;;;;;;;4.65;2.20;;;;;;;26.83;26.52;98461.53;5049828;28;20461;-49
2022/04/09 11:15:16;;;;;;;3.88;2.20;;;;;;;26.37;27.27;98466.25;5048024;28;20044;-48
2022/04/09 11:17:43;;;;;;;4.33;2.23;;;;;;;26.53;26.91;98457.06;5049629;28;20049;-51
2022/04/09 11:20:18;;;;;;;3.67;2.17;;;;;;;26.61;26.62;98466.31;5049934;28;20021;-51
2022/04/09 11:22:52;;;;;;;3.17;2.05;;;;;;;26.93;26.63;98450.16;5048311;28;20086;-52
2022/04/09 11:25:26;;;;;;;2.78;1.90;;;;;;;27.12;26.61;98452.28;5049788;28;20492;-51
2022/04/09 11:28:03;;;;;;;3.60;2.15;;;;;;;28.00;25.56;98459.84;5049826;28;20353;-50
2022/04/09 11:30:29;;;;;;;4.53;2.10;;;;;;;27.99;25.35;98461.78;5049844;28;20021;-49
2022/04/09 11:32:54;;;;;;;3.83;2.40;;;;;;;28.51;24.95;98462.69;5050033;28;20025;-50